createdAt,value
2023-04-17T00:01:55.487Z,100702.25
2023-04-17T00:04:24.916Z,100701.13
2023-04-17T00:06:53.840Z,100702.75
2023-04-17T00:09:21.744Z,100699.88
2023-04-17T00:11:49.379Z,100698.63
2023-04-17T00:14:24.541Z,100699.22
2023-04-17T00:16:52.371Z,100697.91
2023-04-17T00:19:20.162Z,100689.47
2023-04-17T00:21:51.983Z,100691.97
2023-04-17T00:24:19.628Z,100690.44
2023-04-17T00:26:47.826Z,100689.59
2023-04-17T00:29:15.726Z,100693.50
2023-04-17T00:31:43.578Z,100690.53
2023-04-17T00:34:12.673Z,100683.56
2023-04-17T00:36:40.301Z,100686.88
2023-04-17T00:39:17.089Z,100682.84
2023-04-17T00:41:44.929Z,100678.03
2023-04-17T00:44:13.863Z,100682.16
2023-04-17T00:46:42.021Z,100680.81
2023-04-17T00:49:11.932Z,100678.84
2023-04-17T00:51:39.863Z,100679.06
2023-04-17T00:54:14.476Z,100677.06
2023-04-17T00:56:44.888Z,100677.97
2023-04-17T00:59:17.361Z,100677.13
2023-04-17T01:01:46.243Z,100673.44
2023-04-17T01:04:14.572Z,100683.22
2023-04-17T01:06:42.853Z,100675.16
2023-04-17T01:09:13.077Z,100672.31
2023-04-17T01:11:41.824Z,100674.75
2023-04-17T01:14:12.064Z,100676.00
2023-04-17T01:16:44.554Z,100670.41
2023-04-17T01:19:15.969Z,100671.28
2023-04-17T01:21:43.650Z,100676.75
2023-04-17T01:24:12.596Z,100663.78
2023-04-17T01:26:41.487Z,100666.09
2023-04-17T01:29:09.320Z,100660.28
2023-04-17T01:31:37.079Z,100668.25
2023-04-17T01:34:04.813Z,100666.81
2023-04-17T01:36:33.930Z,100673.44
2023-04-17T01:39:01.687Z,100675.81
2023-04-17T01:41:30.723Z,100675.78
2023-04-17T01:43:58.979Z,100673.78
2023-04-17T01:46:26.922Z,100673.34
2023-04-17T01:48:55.102Z,100677.66
2023-04-17T01:51:23.023Z,100677.66
2023-04-17T01:53:50.857Z,100671.47
2023-04-17T01:56:18.714Z,100681.53
2023-04-17T01:58:48.045Z,100673.50
2023-04-17T02:01:15.728Z,100677.66
2023-04-17T02:03:45.044Z,100677.47
2023-04-17T02:06:16.543Z,100665.69
2023-04-17T02:08:46.834Z,100669.16
2023-04-17T02:11:15.480Z,100656.09
2023-04-17T02:13:43.271Z,100656.94
2023-04-17T02:16:15.050Z,100661.28
2023-04-17T02:18:43.222Z,100653.59
2023-04-17T02:21:10.948Z,100666.31
2023-04-17T02:23:38.717Z,100662.16
2023-04-17T02:26:16.591Z,100661.28
2023-04-17T02:28:45.275Z,100658.91
2023-04-17T02:31:14.524Z,100665.69
2023-04-17T02:33:42.370Z,100666.91
2023-04-17T02:36:12.990Z,100673.25
2023-04-17T02:38:44.040Z,100674.38
2023-04-17T02:41:11.724Z,100674.06
2023-04-17T02:43:39.386Z,100669.53
2023-04-17T02:46:07.036Z,100668.81
2023-04-17T02:48:36.721Z,100667.53
2023-04-17T02:51:04.422Z,100671.06
2023-04-17T02:53:32.358Z,100675.59
2023-04-17T02:56:00.066Z,100675.31
2023-04-17T02:58:30.179Z,100668.28
2023-04-17T03:01:02.334Z,100668.59
2023-04-17T03:03:35.167Z,100672.81
2023-04-17T03:06:05.127Z,100676.72
2023-04-17T03:08:38.363Z,100664.63
2023-04-17T03:11:07.269Z,100672.94
2023-04-17T03:16:19.950Z,100679.19
2023-04-17T03:18:50.304Z,100670.66
2023-04-17T03:21:29.253Z,100668.69
2023-04-17T03:23:57.149Z,100676.72
2023-04-17T03:26:25.476Z,100677.91
2023-04-17T03:28:53.149Z,100674.38
2023-04-17T03:31:24.435Z,100672.19
2023-04-17T03:33:52.588Z,100670.72
2023-04-17T03:36:20.650Z,100670.19
2023-04-17T03:38:49.624Z,100669.88
2023-04-17T03:41:17.289Z,100679.44
2023-04-17T03:43:45.044Z,100668.72
2023-04-17T03:46:14.510Z,100681.09
2023-04-17T03:48:42.356Z,100669.91
2023-04-17T03:51:10.056Z,100672.78
2023-04-17T03:53:39.346Z,100682.69
2023-04-17T03:56:08.735Z,100681.66
2023-04-17T03:58:36.410Z,100677.66
2023-04-17T04:01:07.844Z,100674.81
2023-04-17T04:03:36.075Z,100676.00
2023-04-17T04:06:06.152Z,100679.03
2023-04-17T04:08:36.189Z,100685.75
2023-04-17T04:11:04.197Z,100684.41
2023-04-17T04:13:36.280Z,100680.06
2023-04-17T04:16:03.966Z,100683.03
2023-04-17T04:18:32.820Z,100683.25
2023-04-17T04:21:00.473Z,100688.72
2023-04-17T04:23:30.798Z,100690.91
2023-04-17T04:26:01.559Z,100687.25
2023-04-17T04:28:30.253Z,100695.09
2023-04-17T04:30:59.389Z,100700.78
2023-04-17T04:33:27.656Z,100701.78
2023-04-17T04:35:56.596Z,100702.78
2023-04-17T04:38:32.721Z,100702.63
2023-04-17T04:41:06.245Z,100705.97
2023-04-17T04:43:35.057Z,100710.13
2023-04-17T04:46:04.239Z,100703.63
2023-04-17T04:48:32.016Z,100707.16
2023-04-17T04:51:00.481Z,100709.66
2023-04-17T04:53:30.860Z,100712.16
2023-04-17T04:55:58.930Z,100717.84
2023-04-17T04:58:29.490Z,100721.19
2023-04-17T05:01:00.723Z,100723.69
2023-04-17T05:03:29.881Z,100721.13
2023-04-17T05:06:00.687Z,100722.50
2023-04-17T05:08:28.609Z,100723.34
2023-04-17T05:10:56.910Z,100725.16
2023-04-17T05:13:24.643Z,100734.53
2023-04-17T05:15:54.442Z,100728.34
2023-04-17T05:18:23.391Z,100740.88
2023-04-17T05:20:58.228Z,100737.06
2023-04-17T05:23:26.175Z,100740.34
2023-04-17T05:25:54.007Z,100734.50
2023-04-17T05:28:22.084Z,100739.69
2023-04-17T05:30:49.717Z,100738.00
2023-04-17T05:33:18.535Z,100745.16
2023-04-17T05:35:46.605Z,100737.66
2023-04-17T05:38:15.804Z,100740.16
2023-04-17T05:40:43.702Z,100745.16
2023-04-17T05:43:15.076Z,100745.69
2023-04-17T05:45:46.158Z,100746.97
2023-04-17T05:48:19.796Z,100749.47
2023-04-17T05:50:47.793Z,100743.38
2023-04-17T05:53:16.680Z,100741.22
2023-04-17T05:55:44.254Z,100736.63
2023-04-17T05:58:23.004Z,100743.22
2023-04-17T06:00:51.887Z,100742.50
2023-04-17T06:03:20.151Z,100743.16
2023-04-17T06:05:48.310Z,100746.16
2023-04-17T06:08:17.627Z,100740.44
2023-04-17T06:10:46.522Z,100754.94
2023-04-17T06:13:18.334Z,100746.03
2023-04-17T06:15:46.013Z,100755.19
2023-04-17T06:18:16.046Z,100754.56
2023-04-17T06:20:43.795Z,100762.19
2023-04-17T06:23:11.454Z,100759.06
2023-04-17T06:25:40.627Z,100759.94
2023-04-17T06:28:08.299Z,100765.31
2023-04-17T06:30:36.096Z,100766.16
2023-04-17T06:33:04.165Z,100774.00
2023-04-17T06:35:31.939Z,100772.84
2023-04-17T06:37:59.581Z,100762.72
2023-04-17T06:40:27.150Z,100760.50
2023-04-17T06:42:56.059Z,100766.88
2023-04-17T06:45:25.006Z,100772.84
2023-04-17T06:47:54.871Z,100781.63
2023-04-17T06:50:22.729Z,100769.78
2023-04-17T06:52:50.538Z,100774.25
2023-04-17T06:55:18.486Z,100779.09
2023-04-17T06:57:46.331Z,100776.03
2023-04-17T07:00:18.468Z,100774.38
2023-04-17T07:02:48.720Z,100770.38
2023-04-17T07:05:17.103Z,100775.88
2023-04-17T07:07:44.841Z,100777.28
2023-04-17T07:10:16.199Z,100776.28
2023-04-17T07:12:44.292Z,100781.00
2023-04-17T07:15:12.515Z,100780.34
2023-04-17T07:17:42.323Z,100784.31
2023-04-17T07:20:15.411Z,100779.47
2023-04-17T07:22:43.151Z,100780.97
2023-04-17T07:25:11.402Z,100785.44
2023-04-17T07:27:39.507Z,100786.72
2023-04-17T07:30:11.399Z,100779.75
2023-04-17T07:32:39.209Z,100789.13
2023-04-17T07:35:09.278Z,100788.84
2023-04-17T07:37:37.461Z,100794.38
2023-04-17T07:40:09.612Z,100792.97
2023-04-17T07:42:37.633Z,100798.22
2023-04-17T07:45:05.806Z,100797.53
2023-04-17T07:47:33.503Z,100804.22
2023-04-17T07:50:02.208Z,100802.38
2023-04-17T07:52:31.724Z,100797.47
2023-04-17T07:54:59.270Z,100801.53
2023-04-17T07:57:27.439Z,100799.50
2023-04-17T07:59:55.690Z,100795.88
2023-04-17T08:02:23.874Z,100795.22
2023-04-17T08:04:54.439Z,100800.28
2023-04-17T08:07:23.272Z,100803.84
2023-04-17T08:09:52.477Z,100808.00
2023-04-17T08:12:20.635Z,100807.09
2023-04-17T08:14:50.346Z,100810.06
2023-04-17T08:17:22.797Z,100806.34
2023-04-17T08:19:53.432Z,100805.38
2023-04-17T08:22:21.894Z,100819.91
2023-04-17T08:24:50.230Z,100816.31
2023-04-17T08:27:22.099Z,100821.09
2023-04-17T08:30:03.607Z,100814.91
2023-04-17T08:32:31.334Z,100819.75
2023-04-17T08:35:02.249Z,100823.25
2023-04-17T08:37:32.180Z,100822.00
2023-04-17T08:40:00.009Z,100826.78
2023-04-17T08:42:43.526Z,100818.13
2023-04-17T08:45:13.194Z,100825.28
2023-04-17T08:47:51.008Z,100826.31
2023-04-17T08:50:38.942Z,100831.91
2023-04-17T08:53:14.550Z,100832.56
2023-04-17T08:55:42.548Z,100836.25
2023-04-17T08:58:12.646Z,100834.72
2023-04-17T09:00:42.003Z,100831.97
2023-04-17T09:03:12.263Z,100825.66
2023-04-17T09:05:43.488Z,100830.38
2023-04-17T09:08:17.728Z,100828.16
2023-04-17T09:10:51.152Z,100836.00
2023-04-17T09:13:21.904Z,100825.88
2023-04-17T09:16:08.345Z,100829.13
2023-04-17T09:18:40.367Z,100817.19
2023-04-17T09:21:16.061Z,100807.31
2023-04-17T09:23:51.845Z,100813.47
2023-04-17T09:26:25.761Z,100819.63
2023-04-17T09:29:14.569Z,100820.00
2023-04-17T09:31:44.980Z,100816.16
2023-04-17T09:34:26.650Z,100813.63
2023-04-17T09:36:56.112Z,100815.75
2023-04-17T09:39:24.616Z,100810.09
2023-04-17T09:42:05.575Z,100813.72
2023-04-17T09:44:37.115Z,100813.47
2023-04-17T09:47:09.398Z,100817.59
2023-04-17T09:49:42.123Z,100808.78
2023-04-17T09:52:10.256Z,100805.31
2023-04-17T09:54:41.685Z,100811.94
2023-04-17T09:57:13.025Z,100813.94
2023-04-17T09:59:45.073Z,100814.91
2023-04-17T10:02:14.385Z,100816.13
2023-04-17T10:04:45.734Z,100814.47
2023-04-17T10:07:18.342Z,100817.00
2023-04-17T10:09:55.397Z,100811.72
2023-04-17T10:12:47.953Z,100806.22
2023-04-17T10:15:22.484Z,100817.38
2023-04-17T10:18:09.859Z,100808.69
2023-04-17T10:20:45.593Z,100806.69
2023-04-17T10:23:38.523Z,100806.44
2023-04-17T10:26:46.175Z,100806.81
2023-04-17T10:29:14.703Z,100796.75
2023-04-17T10:32:28.632Z,100800.28
2023-04-17T10:35:01.553Z,100791.09
2023-04-17T10:38:04.642Z,100798.31
2023-04-17T10:40:36.480Z,100795.72
2023-04-17T10:43:14.302Z,100798.47
2023-04-17T10:46:05.153Z,100801.81
2023-04-17T10:48:38.376Z,100792.25
2023-04-17T10:51:45.386Z,100795.97
2023-04-17T10:54:17.692Z,100786.22
2023-04-17T10:56:48.312Z,100795.25
2023-04-17T10:59:18.126Z,100782.72
2023-04-17T11:02:07.219Z,100784.75
2023-04-17T11:04:35.058Z,100779.56
2023-04-17T11:07:04.643Z,100781.91
2023-04-17T11:09:33.349Z,100778.25
2023-04-17T11:12:02.648Z,100779.94
2023-04-17T11:14:46.242Z,100769.13
2023-04-17T11:17:25.934Z,100768.28
2023-04-17T11:19:56.190Z,100758.66
2023-04-17T11:22:26.061Z,100752.84
2023-04-17T11:24:57.060Z,100753.63
2023-04-17T11:27:25.373Z,100763.22
2023-04-17T11:29:53.091Z,100762.47
2023-04-17T11:33:02.423Z,100757.06
2023-04-17T11:35:43.508Z,100755.34
2023-04-17T11:38:23.006Z,100755.38
2023-04-17T11:40:56.191Z,100764.38
2023-04-17T11:43:26.211Z,100769.47
2023-04-17T11:45:56.986Z,100765.13
2023-04-17T11:48:29.701Z,100766.50
2023-04-17T11:53:58.422Z,100775.66
2023-04-17T11:56:32.057Z,100778.13
2023-04-17T11:59:01.492Z,100775.06
2023-04-17T12:01:29.940Z,100772.72
2023-04-17T12:04:00.981Z,100769.06
2023-04-17T12:06:37.452Z,100774.22
2023-04-17T12:09:33.274Z,100774.53
2023-04-17T12:12:03.537Z,100772.03
2023-04-17T12:14:33.550Z,100780.34
2023-04-17T12:17:01.998Z,100772.13
2023-04-17T12:19:32.116Z,100786.31
2023-04-17T12:22:14.627Z,100770.38
2023-04-17T12:25:17.869Z,100783.94
2023-04-17T12:27:52.400Z,100774.94
2023-04-17T12:30:20.538Z,100780.53
2023-04-17T12:32:55.070Z,100778.47
2023-04-17T12:35:25.054Z,100772.00
2023-04-17T12:37:53.737Z,100775.72
2023-04-17T12:40:27.057Z,100778.91
2023-04-17T12:42:55.053Z,100767.19
2023-04-17T12:45:23.691Z,100780.25
2023-04-17T12:47:51.533Z,100772.50
2023-04-17T12:50:19.337Z,100774.63
2023-04-17T12:52:47.447Z,100779.59
2023-04-17T12:55:15.077Z,100772.91
2023-04-17T13:00:26.448Z,100778.66
2023-04-17T13:02:56.516Z,100766.78
2023-04-17T13:05:26.111Z,100758.41
2023-04-17T13:07:54.556Z,100764.47
2023-04-17T13:10:22.262Z,100769.13
2023-04-17T13:12:51.220Z,100760.16
2023-04-17T13:15:19.406Z,100751.69
2023-04-17T13:17:47.336Z,100748.34
2023-04-17T13:20:15.067Z,100749.22
2023-04-17T13:22:44.305Z,100746.81
2023-04-17T13:25:12.891Z,100745.22
2023-04-17T13:27:42.867Z,100743.59
2023-04-17T13:30:15.404Z,100742.03
2023-04-17T13:32:43.775Z,100742.94
2023-04-17T13:35:13.389Z,100742.75
2023-04-17T13:37:41.323Z,100747.59
2023-04-17T13:40:16.508Z,100741.06
2023-04-17T13:42:46.247Z,100742.22
2023-04-17T13:45:17.028Z,100740.78
2023-04-17T13:47:49.493Z,100735.53
2023-04-17T13:50:20.232Z,100742.03
2023-04-17T13:52:51.948Z,100729.66
2023-04-17T13:55:19.788Z,100738.31
2023-04-17T13:57:54.383Z,100736.66
2023-04-17T14:00:26.345Z,100736.56
2023-04-17T14:02:55.884Z,100729.72
2023-04-17T14:05:23.991Z,100732.09
2023-04-17T14:07:51.799Z,100735.41
2023-04-17T14:10:20.864Z,100728.00
2023-04-17T14:12:48.832Z,100735.25
2023-04-17T14:15:19.532Z,100733.41
2023-04-17T14:17:57.535Z,100731.97
2023-04-17T14:20:38.391Z,100727.91
2023-04-17T14:23:17.287Z,100719.63
2023-04-17T14:25:52.392Z,100720.03
2023-04-17T14:28:24.682Z,100720.06
2023-04-17T14:30:54.124Z,100724.38
2023-04-17T14:33:28.361Z,100713.03
2023-04-17T14:35:56.965Z,100712.25
2023-04-17T14:41:18.144Z,100715.66
2023-04-17T14:43:50.886Z,100707.75
2023-04-17T14:46:19.421Z,100709.22
2023-04-17T14:48:55.376Z,100706.09
2023-04-17T14:51:28.376Z,100710.06
2023-04-17T14:53:59.350Z,100709.31
2023-04-17T14:56:27.111Z,100701.38
2023-04-17T14:58:54.954Z,100693.72
2023-04-17T15:01:24.019Z,100689.56
2023-04-17T15:04:05.594Z,100689.53
2023-04-17T15:06:35.699Z,100688.41
2023-04-17T15:09:06.435Z,100674.50
2023-04-17T15:11:36.360Z,100691.09
2023-04-17T15:14:05.945Z,100672.00
2023-04-17T15:16:36.654Z,100681.16
2023-04-17T15:19:47.636Z,100689.91
2023-04-17T15:22:20.967Z,100675.19
2023-04-17T15:24:49.409Z,100681.47
2023-04-17T15:27:18.461Z,100679.41
2023-04-17T15:29:51.357Z,100676.50
2023-04-17T15:32:36.493Z,100672.75
2023-04-17T15:35:07.734Z,100667.78
2023-04-17T15:37:47.965Z,100665.94
2023-04-17T15:40:16.456Z,100676.31
2023-04-17T15:42:45.890Z,100666.13
2023-04-17T15:45:15.367Z,100679.63
2023-04-17T15:47:44.172Z,100672.56
2023-04-17T15:50:14.122Z,100664.84
2023-04-17T15:52:55.070Z,100664.88
2023-04-17T15:55:22.876Z,100668.81
2023-04-17T15:57:54.950Z,100671.53
2023-04-17T16:00:30.355Z,100673.81
2023-04-17T16:02:59.872Z,100672.97
2023-04-17T16:05:28.028Z,100673.59
2023-04-17T16:07:58.254Z,100672.97
2023-04-17T16:10:31.016Z,100673.38
2023-04-17T16:13:08.776Z,100660.94
2023-04-17T16:15:38.381Z,100664.63
2023-04-17T16:20:53.505Z,100663.72
2023-04-17T16:23:30.396Z,100662.06
2023-04-17T16:26:11.138Z,100663.03
2023-04-17T16:28:39.251Z,100669.34
2023-04-17T16:31:11.675Z,100663.66
2023-04-17T16:33:44.195Z,100670.78
2023-04-17T16:36:27.881Z,100669.13
2023-04-17T16:39:05.236Z,100668.69
2023-04-17T16:41:33.604Z,100666.56
2023-04-17T16:44:10.850Z,100665.78
2023-04-17T16:46:59.239Z,100663.31
2023-04-17T16:49:33.272Z,100675.38
2023-04-17T16:52:03.824Z,100668.91
2023-04-17T16:54:41.760Z,100670.59
2023-04-17T16:57:20.370Z,100668.31
2023-04-17T16:59:56.918Z,100673.66
2023-04-17T17:02:29.000Z,100672.66
2023-04-17T17:04:59.281Z,100672.84
2023-04-17T17:07:27.035Z,100674.50
2023-04-17T17:09:58.196Z,100675.78
2023-04-17T17:12:26.256Z,100674.94
2023-04-17T17:14:55.669Z,100685.03
2023-04-17T17:17:42.318Z,100677.59
2023-04-17T17:20:13.681Z,100678.19
2023-04-17T17:25:57.856Z,100680.59
2023-04-17T17:28:27.078Z,100687.88
2023-04-17T17:31:08.385Z,100687.72
2023-04-17T17:36:25.469Z,100688.50
2023-04-17T17:38:55.901Z,100686.84
2023-04-17T17:41:28.798Z,100690.53
2023-04-17T17:43:59.075Z,100689.50
2023-04-17T17:46:34.193Z,100692.63
2023-04-17T17:49:02.435Z,100700.50
2023-04-17T17:51:37.257Z,100701.06
2023-04-17T17:54:13.360Z,100693.69
2023-04-17T17:56:52.347Z,100692.88
2023-04-17T17:59:30.769Z,100702.03
2023-04-17T18:02:10.701Z,100700.94
2023-04-17T18:04:41.083Z,100707.72
2023-04-17T18:07:09.979Z,100707.34
2023-04-17T18:09:37.867Z,100709.47
2023-04-17T18:14:57.652Z,100704.41
2023-04-17T18:17:25.232Z,100713.34
2023-04-17T18:19:56.175Z,100710.00
2023-04-17T18:22:23.965Z,100716.66
2023-04-17T18:25:01.830Z,100719.22
2023-04-17T18:27:55.200Z,100714.16
2023-04-17T18:30:24.760Z,100716.00
2023-04-17T18:32:52.488Z,100721.56
2023-04-17T18:35:29.925Z,100719.72
2023-04-17T18:38:23.218Z,100727.13
2023-04-17T18:40:59.622Z,100730.81
2023-04-17T18:43:37.708Z,100734.56
2023-04-17T18:46:09.966Z,100735.22
2023-04-17T18:48:47.155Z,100740.81
2023-04-17T18:51:33.394Z,100746.19
2023-04-17T18:54:23.309Z,100741.63
2023-04-17T18:56:52.376Z,100752.72
2023-04-17T18:59:33.272Z,100750.34
2023-04-17T19:02:00.953Z,100753.94
2023-04-17T19:04:30.363Z,100749.41
2023-04-17T19:06:59.526Z,100758.56
2023-04-17T19:09:29.439Z,100759.19
2023-04-17T19:11:58.517Z,100758.81
2023-04-17T19:17:17.326Z,100763.19
2023-04-17T19:19:47.473Z,100759.84
2023-04-17T19:22:37.833Z,100761.25
2023-04-17T19:25:11.129Z,100757.16
2023-04-17T19:27:50.661Z,100762.38
2023-04-17T19:30:40.375Z,100764.50
2023-04-17T19:33:19.405Z,100758.09
2023-04-17T19:38:52.463Z,100768.59
2023-04-17T19:41:21.950Z,100765.34
2023-04-17T19:43:54.322Z,100766.78
2023-04-17T19:46:26.517Z,100764.09
2023-04-17T19:49:01.027Z,100761.31
2023-04-17T19:51:31.024Z,100773.28
2023-04-17T19:54:04.280Z,100773.38
2023-04-17T19:56:32.272Z,100769.19
2023-04-17T19:59:03.682Z,100771.25
2023-04-17T20:01:33.883Z,100767.34
2023-04-17T20:04:01.847Z,100772.41
2023-04-17T20:06:29.765Z,100766.19
2023-04-17T20:09:00.334Z,100771.13
2023-04-17T20:11:28.077Z,100777.44
2023-04-17T20:13:55.986Z,100768.50
2023-04-17T20:16:26.974Z,100763.63
2023-04-17T20:19:03.826Z,100768.34
2023-04-17T20:21:31.862Z,100772.28
2023-04-17T20:24:04.844Z,100772.84
2023-04-17T20:26:37.257Z,100761.97
2023-04-17T20:29:08.782Z,100759.34
2023-04-17T20:31:38.938Z,100768.38
2023-04-17T20:34:08.919Z,100775.28
2023-04-17T20:36:48.859Z,100775.56
2023-04-17T20:39:21.576Z,100767.09
2023-04-17T20:41:51.860Z,100771.19
2023-04-17T20:44:19.945Z,100768.59
2023-04-17T20:46:47.800Z,100766.56
2023-04-17T20:49:24.827Z,100768.41
2023-04-17T20:51:55.762Z,100770.16
2023-04-17T20:54:34.811Z,100768.13
2023-04-17T20:57:05.568Z,100767.22
2023-04-17T20:59:35.182Z,100762.88
2023-04-17T21:02:03.424Z,100757.44
2023-04-17T21:04:33.557Z,100767.34
2023-04-17T21:07:02.733Z,100761.28
2023-04-17T21:09:30.643Z,100762.53
2023-04-17T21:11:58.435Z,100765.25
2023-04-17T21:14:30.598Z,100764.13
2023-04-17T21:17:01.538Z,100770.19
2023-04-17T21:19:32.311Z,100772.13
2023-04-17T21:22:03.719Z,100769.63
2023-04-17T21:24:31.723Z,100766.47
2023-04-17T21:26:59.738Z,100763.81
2023-04-17T21:29:28.336Z,100760.66
2023-04-17T21:31:57.186Z,100768.34
2023-04-17T21:34:27.058Z,100766.66
2023-04-17T21:39:41.474Z,100764.41
2023-04-17T21:42:09.721Z,100765.44
2023-04-17T21:44:40.843Z,100772.03
2023-04-17T21:47:09.686Z,100770.16
2023-04-17T21:49:37.361Z,100773.72
2023-04-17T21:52:06.498Z,100769.94
2023-04-17T21:54:39.124Z,100777.84
2023-04-17T21:57:09.257Z,100781.97
2023-04-17T21:59:38.471Z,100773.94
2023-04-17T22:02:06.265Z,100778.53
2023-04-17T22:04:34.990Z,100770.03
2023-04-17T22:07:03.144Z,100775.25
2023-04-17T22:09:39.432Z,100775.25
2023-04-17T22:12:20.885Z,100774.94
2023-04-17T22:14:49.438Z,100779.09
2023-04-17T22:17:17.645Z,100770.88
2023-04-17T22:19:45.275Z,100773.22
2023-04-17T22:22:15.258Z,100777.44
2023-04-17T22:24:42.928Z,100774.09
2023-04-17T22:27:10.505Z,100784.47
2023-04-17T22:29:39.662Z,100777.78
2023-04-17T22:32:07.498Z,100777.28
2023-04-17T22:34:35.291Z,100778.13
2023-04-17T22:37:02.896Z,100782.81
2023-04-17T22:39:32.029Z,100773.41
2023-04-17T22:41:59.708Z,100778.28
2023-04-17T22:44:27.384Z,100781.50
2023-04-17T22:46:56.676Z,100781.31
2023-04-17T22:49:24.978Z,100779.97
2023-04-17T22:51:53.052Z,100776.13
2023-04-17T22:54:23.072Z,100780.31
2023-04-17T22:56:51.131Z,100780.25
2023-04-17T22:59:18.775Z,100775.97
2023-04-17T23:01:46.445Z,100779.81
2023-04-17T23:04:20.557Z,100788.50
2023-04-17T23:06:48.225Z,100784.78
2023-04-17T23:09:16.409Z,100790.81
2023-04-17T23:11:44.052Z,100787.81
2023-04-17T23:14:12.215Z,100785.00
2023-04-17T23:16:40.207Z,100782.31
2023-04-17T23:19:08.063Z,100782.16
2023-04-17T23:21:38.519Z,100785.53
2023-04-17T23:24:07.944Z,100777.84
2023-04-17T23:26:35.661Z,100780.50
2023-04-17T23:29:03.532Z,100781.00
2023-04-17T23:31:31.512Z,100781.00
2023-04-17T23:33:59.877Z,100784.16
2023-04-17T23:36:27.625Z,100785.34
2023-04-17T23:38:56.617Z,100782.34
2023-04-17T23:41:26.573Z,100783.19
2023-04-17T23:43:55.882Z,100779.69
2023-04-17T23:46:23.499Z,100789.56
2023-04-17T23:48:51.175Z,100780.00
2023-04-17T23:51:19.008Z,100773.00
2023-04-17T23:53:46.794Z,100779.50
2023-04-17T23:56:16.163Z,100780.69
2023-04-17T23:58:43.766Z,100780.16
